Terminal Aerodrome Forecast
Issued by NWS Rapid City, SD

Home | Current Version | Previous Version | Graphics & Text | Print | Product List | Glossary On
Versions: 1 2 3 4 5 6 7 8 9 10 11 12 13 14 15 16 17 18 19
206
FTUS43 KUNR 022238 AAB
TAFRAP
TAF AMD
KRAP 022238Z 0223/0318 36008KT 1/2SM SN FEW007 OVC011
     FM030000 34008KT 2SM -SN BKN015 OVC025
     FM030300 35008KT P6SM OVC015
     FM030700 33006KT P6SM OVC050=

USA.gov is the U.S. government's official web portal to all federal, state and local government web resources and services.